Russellville, South Carolina
Current Conditions -  °F | °C
As of 4:15 AM on Wednesday 28 Jan 2015 (Local Time) from KMKS Reporting Station
Clear Clear  
Wind Chill: 34°   Ceiling: Unl
Heat Index: 39°   Visibility: 10mi
Dew Point: 23°   Wind: 8mph
Humidity: 52%   Direction: 360°N
Pressure: 30.08"   Gusts: NA
Location:  33.4°N, 79.97°W
Report Text: KMKS 280915Z AUTO 36007KT 10SM CLR 04/M05 A3008 RMK AO2
Loading
Personal Weather Stations






























Interactive Weather Map New forecast layout! Learn more

10-Day Weather Forecast

Advertisements
Track Severe Weather on mobile